Time;durP1;ratioP1;P1;durP2;ratioP2;P2;SDS_P1;SDS_P2;PMS_P1;PMS_P2;Temp;Humidity;BMP_temperature;BMP_pressure;BME280_temperature;BME280_humidity;BME280_pressure;Samples;Min_cycle;Max_cycle;Signal;HPM_P1;HPM_P2
2021/06/07 00:02:33;;;;;;;1999.90;999.90;;;17.80;99.90;;;;;;5076930;28;20438;-84
2021/06/07 00:05:30;;;;;;;1999.90;999.90;;;17.80;99.90;;;;;;5076028;28;20410;-85
2021/06/07 00:10:51;;;;;;;1999.90;999.90;;;17.80;99.90;;;;;;3299821;26;20493;-91
2021/06/07 00:13:26;;;;;;;1999.90;999.90;;;17.80;99.90;;;;;;5057716;28;20429;-91
2021/06/07 00:16:04;;;;;;;1999.90;999.90;;;17.80;99.90;;;;;;5074937;28;20436;-91
2021/06/07 00:18:42;;;;;;;1999.90;999.90;;;17.90;99.90;;;;;;5059792;28;20426;-91
2021/06/07 00:21:35;;;;;;;1999.90;999.90;;;17.80;99.90;;;;;;5071556;28;20742;-91
2021/06/07 00:24:20;;;;;;;1999.90;999.90;;;17.90;99.90;;;;;;5075014;28;20410;-91
2021/06/07 00:26:55;;;;;;;1999.90;999.90;;;17.80;99.90;;;;;;5073787;28;20951;-91
2021/06/07 00:29:55;;;;;;;1999.90;999.90;;;17.80;99.90;;;;;;5073165;28;20444;-90
2021/06/07 00:32:31;;;;;;;1999.90;999.90;;;17.80;99.90;;;;;;5073104;28;20405;-91
2021/06/07 00:35:16;;;;;;;1999.90;999.90;;;17.80;99.90;;;;;;5074024;28;20429;-91
2021/06/07 00:37:59;;;;;;;1999.90;999.90;;;17.80;99.90;;;;;;5074410;28;20938;-91
2021/06/07 00:40:59;;;;;;;1999.90;999.90;;;17.80;99.90;;;;;;5073766;28;20448;-91
2021/06/07 00:43:37;;;;;;;1999.90;999.90;;;17.80;99.90;;;;;;5071278;28;20407;-91
2021/06/07 00:46:23;;;;;;;1999.90;999.90;;;17.80;99.90;;;;;;5073860;28;20485;-91
2021/06/07 00:48:58;;;;;;;1999.90;999.90;;;17.80;99.90;;;;;;5072003;28;20441;-91
2021/06/07 00:51:42;;;;;;;1999.90;999.90;;;17.80;99.90;;;;;;5073391;28;20429;-91
2021/06/07 00:54:24;;;;;;;1999.90;999.90;;;17.80;99.90;;;;;;5071947;28;20882;-91
2021/06/07 00:57:03;;;;;;;;;;;;;;;;;;;;;
2021/06/07 00:59:55;;;;;;;1999.90;999.90;;;17.80;99.90;;;;;;5074188;28;20418;-91
2021/06/07 01:02:28;;;;;;;1999.90;999.90;;;17.80;99.90;;;;;;5068996;28;20406;-91
2021/06/07 01:05:02;;;;;;;1999.90;999.90;;;17.80;99.90;;;;;;5073801;28;20418;-91
2021/06/07 01:07:28;;;;;;;1999.90;999.90;;;17.80;99.90;;;;;;5072912;28;20449;-91
2021/06/07 01:10:03;;;;;;;1999.90;999.90;;;17.80;99.90;;;;;;5072181;28;20474;-91
2021/06/07 01:12:31;;;;;;;1999.90;999.90;;;17.80;99.90;;;;;;5071651;28;20237;-91
2021/06/07 01:15:11;;;;;;;1999.90;999.90;;;17.80;99.90;;;;;;5073083;28;20965;-91
2021/06/07 01:17:37;;;;;;;1999.90;999.90;;;17.80;99.90;;;;;;5073463;28;20394;-90
2021/06/07 01:23:25;;;;;;;1999.90;999.90;;;17.70;99.90;;;;;;5031671;28;20470;-91
2021/06/07 01:26:08;;;;;;;1999.90;999.90;;;17.70;99.90;;;;;;5031874;28;20407;-91
2021/06/07 01:29:12;;;;;;;1999.90;999.90;;;17.70;99.90;;;;;;5031483;28;20428;-91
2021/06/07 01:31:45;;;;;;;1999.90;999.90;;;17.70;99.90;;;;;;5031154;28;20802;-91
2021/06/07 01:35:14;;;;;;;;;;;;;;;;;;;;;
2021/06/07 01:38:38;;;;;;;;;;;;;;;;;;;;;
2021/06/07 01:41:12;;;;;;;1999.90;999.90;;;17.60;99.90;;;;;;5025268;28;20415;-91
2021/06/07 01:47:31;;;;;;;;;;;;;;;;;;;;;
2021/06/07 01:50:16;;;;;;;1999.90;999.90;;;17.50;99.90;;;;;;5074710;28;20426;-91
2021/06/07 01:53:35;;;;;;;1999.90;999.90;;;17.50;99.90;;;;;;5071947;28;20460;-91
2021/06/07 01:56:32;;;;;;;1999.90;999.90;;;17.50;99.90;;;;;;4975185;28;20517;-91
2021/06/07 01:59:12;;;;;;;1999.90;999.90;;;17.40;99.90;;;;;;4990803;28;20433;-91
2021/06/07 02:02:18;;;;;;;;;;;;;;;;;;;;;
2021/06/07 02:05:11;;;;;;;1999.90;999.90;;;17.40;99.90;;;;;;4991515;28;20413;-91
2021/06/07 02:07:57;;;;;;;1999.90;999.90;;;17.40;99.90;;;;;;5040227;28;20410;-90
2021/06/07 02:17:19;;;;;;;1999.90;999.90;;;17.30;99.90;;;;;;5046796;28;20901;-91
2021/06/07 02:20:07;;;;;;;1999.90;999.90;;;17.30;99.90;;;;;;5071104;28;20793;-91
2021/06/07 02:22:43;;;;;;;1999.90;999.90;;;17.30;99.90;;;;;;5072038;28;20402;-91
2021/06/07 02:26:13;;;;;;;;;;;;;;;;;;;;;
2021/06/07 02:32:47;;;;;;;1999.90;999.90;;;17.20;99.90;;;;;;4987511;28;20496;-91
2021/06/07 02:35:30;;;;;;;1999.90;999.90;;;17.20;99.90;;;;;;4978649;28;20449;-90
2021/06/07 02:38:38;;;;;;;;;;;;;;;;;;;;;
2021/06/07 02:41:13;;;;;;;1999.90;999.90;;;17.20;99.90;;;;;;4995237;28;20769;-90
2021/06/07 02:44:42;;;;;;;1999.90;999.90;;;17.20;99.90;;;;;;4978263;28;20453;-90
2021/06/07 02:47:22;;;;;;;1999.90;999.90;;;17.20;99.90;;;;;;4918497;29;20413;-90
2021/06/07 02:53:24;;;;;;;1999.90;999.90;;;17.20;99.90;;;;;;5004553;28;20463;-90
2021/06/07 02:56:16;;;;;;;1999.90;999.90;;;17.10;99.90;;;;;;4980381;28;20489;-90
2021/06/07 03:02:52;;;;;;;1999.90;999.90;;;17.10;99.90;;;;;;4964121;28;20508;-91
2021/06/07 03:06:04;;;;;;;;;;;;;;;;;;;;;
2021/06/07 03:11:24;;;;;;;1999.90;999.90;;;17.00;99.90;;;;;;5124884;22;20483;-90
2021/06/07 03:14:33;;;;;;;1999.90;999.90;;;17.00;99.90;;;;;;5057805;28;20441;-90
2021/06/07 03:17:18;;;;;;;1999.90;999.90;;;17.00;99.90;;;;;;5075479;28;20425;-90
2021/06/07 03:19:56;;;;;;;1999.90;999.90;;;16.90;99.90;;;;;;5058834;28;20439;-90
2021/06/07 03:26:31;;;;;;;;;;;;;;;;;;;;;
2021/06/07 03:33:29;;;;;;;1999.90;999.90;;;17.00;99.90;;;;;;4994383;28;20463;-90
2021/06/07 03:36:36;;;;;;;;;;;;;;;;;;;;;
2021/06/07 03:40:07;;;;;;;1999.90;999.90;;;16.80;99.90;;;;;;4993659;28;20485;-90
2021/06/07 03:43:50;;;;;;;;;;;;;;;;;;;;;
2021/06/07 03:54:24;;;;;;;1999.90;999.90;;;16.90;99.90;;;;;;4903251;29;20938;-90
2021/06/07 04:01:19;;;;;;;;;;;;;;;;;;;;;
2021/06/07 04:04:44;;;;;;;1999.90;999.90;;;16.80;99.90;;;;;;5007580;28;20412;-90
2021/06/07 04:08:14;;;;;;;1999.90;999.90;;;16.90;99.90;;;;;;5053787;28;20902;-90
2021/06/07 04:11:42;;;;;;;1999.90;999.90;;;16.90;99.90;;;;;;5036578;28;20422;-90
2021/06/07 04:24:37;;;;;;;1999.90;999.90;;;17.00;99.90;;;;;;5074350;28;20466;-90
2021/06/07 04:28:09;;;;;;;1999.90;999.90;;;17.10;99.90;;;;;;5073419;28;20418;-90
2021/06/07 04:31:18;;;;;;;;;;;;;;;;;;;;;
2021/06/07 04:34:38;;;;;;;1999.90;999.90;;;17.10;99.90;;;;;;5055272;28;20498;-90
2021/06/07 04:40:59;;;;;;;1999.90;999.90;;;17.30;99.90;;;;;;5032034;28;20402;-89
2021/06/07 04:47:50;;;;;;;;;;;;;;;;;;;;;
2021/06/07 05:02:16;;;;;;;1999.90;999.90;;;17.70;99.90;;;;;;4991709;28;20829;-90
2021/06/07 05:05:36;;;;;;;1999.90;999.90;;;17.90;99.90;;;;;;4974668;28;20406;-90
2021/06/07 05:08:59;;;;;;;1999.90;999.90;;;18.00;99.90;;;;;;4934486;29;20415;-89
2021/06/07 05:12:28;;;;;;;1999.90;999.90;;;18.10;99.90;;;;;;4918462;29;20465;-89
2021/06/07 05:19:53;;;;;;;;;;;;;;;;;;;;;
2021/06/07 05:26:11;;;;;;;1999.90;999.90;;;17.90;99.90;;;;;;4899838;29;20443;-90
2021/06/07 05:29:34;;;;;;;;;;;;;;;;;;;;;
2021/06/07 05:47:54;;;;;;;;;;;;;;;;;;;;;
2021/06/07 05:57:27;;;;;;;1999.90;999.90;;;17.70;99.90;;;;;;4982418;28;20459;-91
2021/06/07 06:03:11;;;;;;;1999.90;999.90;;;17.80;99.90;;;;;;5018116;28;20420;-90
2021/06/07 06:05:57;;;;;;;1999.90;999.90;;;17.90;99.90;;;;;;5016141;28;20424;-90
2021/06/07 06:08:29;;;;;;;1999.90;999.90;;;18.00;99.90;;;;;;5032515;22;20498;-85
2021/06/07 06:10:58;;;;;;;1999.90;999.90;;;18.00;99.90;;;;;;5040472;28;20451;-84
2021/06/07 06:13:26;;;;;;;1999.90;999.90;;;18.10;99.90;;;;;;5041660;28;20464;-85
2021/06/07 06:16:22;;;;;;;1999.90;999.90;;;18.10;99.90;;;;;;5038657;28;20801;-85
2021/06/07 06:19:30;;;;;;;;;;;;;;;;;;;;;
2021/06/07 06:22:08;;;;;;;1999.90;999.90;;;18.10;99.90;;;;;;5038440;28;20461;-85
2021/06/07 06:24:45;;;;;;;1999.90;999.90;;;18.10;99.90;;;;;;5039361;28;20408;-85
2021/06/07 06:27:28;;;;;;;1999.90;999.90;;;18.10;99.90;;;;;;5041017;28;20387;-85
2021/06/07 06:29:54;;;;;;;1999.90;999.90;;;18.20;99.90;;;;;;5038397;28;20450;-85
2021/06/07 06:32:28;;;;;;;1999.90;999.90;;;18.20;99.90;;;;;;5039860;28;20891;-85
2021/06/07 06:34:56;;;;;;;1999.90;999.90;;;18.20;99.90;;;;;;5038840;28;20740;-85
2021/06/07 06:37:22;;;;;;;1999.90;999.90;;;18.20;99.90;;;;;;5039977;28;20423;-85
2021/06/07 06:39:50;;;;;;;1999.90;999.90;;;18.20;99.90;;;;;;5038526;28;20456;-85
2021/06/07 06:42:22;;;;;;;1999.90;999.90;;;18.20;99.90;;;;;;5039884;28;20161;-85
2021/06/07 06:44:54;;;;;;;1999.90;999.90;;;18.30;99.90;;;;;;5038771;28;20420;-85
2021/06/07 06:47:32;;;;;;;1999.90;999.90;;;18.20;99.90;;;;;;5039888;28;20457;-85
2021/06/07 06:50:09;;;;;;;1999.90;999.90;;;18.10;99.90;;;;;;5039697;28;20423;-86
2021/06/07 06:52:47;;;;;;;1999.90;999.90;;;18.10;99.90;;;;;;5038878;28;20626;-85
2021/06/07 06:55:16;;;;;;;1999.90;999.90;;;18.20;99.90;;;;;;5037620;28;20511;-85
2021/06/07 07:00:17;;;;;;;1999.90;999.90;;;18.30;99.90;;;;;;5043963;22;20487;-85
2021/06/07 07:02:58;;;;;;;1999.90;999.90;;;18.30;99.90;;;;;;5020812;28;20431;-85
2021/06/07 07:05:23;;;;;;;1999.90;999.90;;;18.50;99.90;;;;;;5021558;28;20407;-85
2021/06/07 07:07:49;;;;;;;1999.90;999.90;;;18.50;99.90;;;;;;5040039;28;20397;-84
2021/06/07 07:10:15;;;;;;;1999.90;999.90;;;18.60;99.90;;;;;;5037371;28;20272;-85
2021/06/07 07:12:53;;;;;;;;;;;;;;;;;;;;;
2021/06/07 07:15:22;;;;;;;1999.90;999.90;;;18.60;99.90;;;;;;5038960;28;20187;-85
2021/06/07 07:17:48;;;;;;;1999.90;999.90;;;18.60;99.90;;;;;;5038302;28;20463;-84
2021/06/07 07:20:17;;;;;;;1999.90;999.90;;;18.60;99.90;;;;;;5038373;28;20403;-84
2021/06/07 07:22:50;;;;;;;1999.90;999.90;;;18.70;99.90;;;;;;5038557;28;20201;-84
2021/06/07 07:25:16;;;;;;;1999.90;999.90;;;18.80;99.90;;;;;;5020593;28;20416;-84
2021/06/07 07:27:42;;;;;;;1999.90;999.90;;;18.90;99.90;;;;;;5037260;28;20752;-84
2021/06/07 07:30:27;;;;;;;1999.90;999.90;;;18.90;99.90;;;;;;5036881;28;20181;-84
2021/06/07 07:32:56;;;;;;;1999.90;999.90;;;18.90;99.90;;;;;;5019547;28;20412;-84
2021/06/07 07:35:26;;;;;;;1999.90;999.90;;;19.00;99.90;;;;;;5037409;28;20973;-85
2021/06/07 07:37:58;;;;;;;1999.90;999.90;;;19.00;99.90;;;;;;5036794;28;20741;-84
2021/06/07 07:40:30;;;;;;;1999.90;999.90;;;19.10;99.90;;;;;;5019915;28;20412;-84
2021/06/07 07:42:56;;;;;;;1999.90;999.90;;;19.20;99.90;;;;;;5037517;28;20407;-84
2021/06/07 07:45:32;;;;;;;1999.90;999.90;;;19.20;99.90;;;;;;5037541;28;20403;-84
2021/06/07 07:48:08;;;;;;;1999.90;999.90;;;19.30;99.90;;;;;;5037952;28;20391;-84
2021/06/07 07:50:48;;;;;;;1999.90;999.90;;;19.40;99.90;;;;;;5019661;28;20779;-84
2021/06/07 07:53:15;;;;;;;1999.90;999.90;;;19.50;99.90;;;;;;5037771;28;20395;-84
2021/06/07 07:55:44;;;;;;;1999.90;999.90;;;19.50;99.90;;;;;;5037008;28;20514;-85
2021/06/07 07:58:13;;;;;;;1999.90;999.90;;;19.50;99.90;;;;;;5037649;28;20447;-85
2021/06/07 08:00:41;;;;;;;1999.90;999.90;;;19.40;99.90;;;;;;5037981;28;20484;-85
2021/06/07 08:03:14;;;;;;;1999.90;999.90;;;19.40;99.90;;;;;;5038153;28;20407;-84
2021/06/07 08:05:43;;;;;;;1999.90;999.90;;;19.50;99.90;;;;;;5037836;28;20464;-84
2021/06/07 08:08:13;;;;;;;1999.90;999.90;;;19.60;99.90;;;;;;5037481;28;20430;-85
2021/06/07 08:10:44;;;;;;;1999.90;999.90;;;19.80;99.90;;;;;;5037550;28;20443;-84
2021/06/07 08:13:30;;;;;;;1999.90;999.90;;;19.90;99.90;;;;;;5036944;28;20395;-84
2021/06/07 08:15:58;;;;;;;1999.90;999.90;;;20.10;99.90;;;;;;5036479;28;20439;-85
2021/06/07 08:18:29;;;;;;;1999.90;999.90;;;20.20;99.90;;;;;;5019211;28;20439;-84
2021/06/07 08:20:55;;;;;;;1999.90;999.90;;;20.20;99.90;;;;;;5018888;28;20754;-84
2021/06/07 08:23:28;;;;;;;1999.90;999.90;;;20.10;99.90;;;;;;5037460;28;20403;-85
2021/06/07 08:26:19;;;;;;;1999.90;999.90;;;20.20;99.90;;;;;;5037009;28;20166;-84
2021/06/07 08:28:45;;;;;;;1999.90;999.90;;;20.10;99.90;;;;;;5018704;28;20959;-85
2021/06/07 08:31:10;;;;;;;1999.90;999.90;;;20.30;99.90;;;;;;5019563;28;20419;-85
2021/06/07 08:33:39;;;;;;;1999.90;999.90;;;20.30;99.90;;;;;;5036575;28;20507;-85
2021/06/07 08:36:08;;;;;;;1999.90;999.90;;;20.20;99.90;;;;;;5018904;28;20247;-85
2021/06/07 08:38:37;;;;;;;1999.90;999.90;;;20.40;99.90;;;;;;5036402;28;20474;-84
2021/06/07 08:41:03;;;;;;;1999.90;999.90;;;20.50;99.90;;;;;;5037349;28;20403;-84
2021/06/07 08:43:34;;;;;;;1999.90;999.90;;;20.70;99.90;;;;;;5037069;28;20905;-85
2021/06/07 08:46:00;;;;;;;1999.90;999.90;;;20.70;99.90;;;;;;5037377;28;20404;-85
2021/06/07 08:48:26;;;;;;;1999.90;999.90;;;20.60;99.90;;;;;;5037222;28;20981;-85
2021/06/07 08:51:04;;;;;;;1999.90;999.90;;;20.50;99.90;;;;;;5019333;28;20178;-85
2021/06/07 08:53:30;;;;;;;1999.90;999.90;;;20.50;99.90;;;;;;5038423;28;20386;-85
2021/06/07 08:56:02;;;;;;;1999.90;999.90;;;20.60;99.90;;;;;;5037702;28;20447;-86
2021/06/07 08:58:31;;;;;;;1999.90;999.90;;;20.60;99.90;;;;;;5037358;28;20513;-86
2021/06/07 09:00:59;;;;;;;1999.90;999.90;;;20.70;99.90;;;;;;5019696;28;20499;-85
2021/06/07 09:03:31;;;;;;;1999.90;999.90;;;20.60;99.90;;;;;;5037210;28;20407;-85
2021/06/07 09:06:02;;;;;;;1999.90;999.90;;;20.80;99.90;;;;;;5019845;28;20410;-85
2021/06/07 09:08:37;;;;;;;1999.90;999.90;;;21.00;99.90;;;;;;5018767;28;20428;-84
2021/06/07 09:11:20;;;;;;;1999.90;999.90;;;21.00;99.90;;;;;;5038793;28;20392;-85
2021/06/07 09:13:46;;;;;;;1999.90;999.90;;;21.00;99.90;;;;;;5037414;28;20428;-84
2021/06/07 09:16:13;;;;;;;1999.90;999.90;;;21.00;99.90;;;;;;5020526;28;20830;-84
2021/06/07 09:18:41;;;;;;;1999.90;999.90;;;21.10;99.90;;;;;;5036979;28;20179;-83
2021/06/07 09:21:14;;;;;;;1999.90;999.90;;;21.10;99.90;;;;;;5038285;28;20407;-83
2021/06/07 09:23:54;;;;;;;1999.90;999.90;;;21.20;99.90;;;;;;5037920;28;20391;-83
2021/06/07 09:26:38;;;;;;;1999.90;999.90;;;21.10;99.90;;;;;;5038246;28;20525;-83
2021/06/07 09:29:13;;;;;;;1999.90;999.90;;;21.10;99.90;;;;;;5038398;28;20432;-83
2021/06/07 09:32:00;;;;;;;1999.90;999.90;;;21.00;99.90;;;;;;5020922;28;20504;-83
2021/06/07 09:34:31;;;;;;;1999.90;999.90;;;21.10;99.90;;;;;;5037740;28;20535;-83
2021/06/07 09:37:09;;;;;;;1999.90;999.90;;;21.20;99.90;;;;;;5038430;28;20394;-83
2021/06/07 09:39:36;;;;;;;1999.90;999.90;;;21.20;99.90;;;;;;5037199;28;20418;-82
2021/06/07 09:42:10;;;;;;;1999.90;999.90;;;21.10;99.90;;;;;;5037654;28;20397;-83
2021/06/07 09:44:53;;;;;;;1999.90;999.90;;;21.00;99.90;;;;;;5038362;28;20379;-83
2021/06/07 09:47:27;;;;;;;1999.90;999.90;;;20.90;99.90;;;;;;5020761;28;20492;-83
2021/06/07 09:49:56;;;;;;;1999.90;999.90;;;21.10;99.90;;;;;;5037739;28;20476;-83
2021/06/07 09:52:23;;;;;;;1999.90;999.90;;;21.20;99.90;;;;;;5020100;28;20405;-84
2021/06/07 09:55:04;;;;;;;1999.90;999.90;;;21.30;99.90;;;;;;5019826;28;20508;-83
2021/06/07 09:57:53;;;;;;;1999.90;999.90;;;21.20;99.90;;;;;;5038560;28;20411;-82
2021/06/07 10:00:33;;;;;;;1999.90;999.90;;;21.10;99.90;;;;;;5020141;28;20416;-83
2021/06/07 10:03:42;;;;;;;1999.90;999.90;;;21.20;99.90;;;;;;5037586;28;20808;-82
2021/06/07 10:06:22;;;;;;;1999.90;999.90;;;21.20;99.90;;;;;;5018050;28;20469;-83
2021/06/07 10:08:57;;;;;;;1999.90;999.90;;;21.10;99.90;;;;;;5037992;28;20423;-84
2021/06/07 10:11:23;;;;;;;1999.90;999.90;;;21.10;99.90;;;;;;5038191;28;20376;-84
2021/06/07 10:13:50;;;;;;;1999.90;999.90;;;21.10;99.90;;;;;;5038490;28;20406;-83
2021/06/07 10:16:17;;;;;;;1999.90;999.90;;;21.00;99.90;;;;;;5020455;28;20192;-83
2021/06/07 10:18:44;;;;;;;1999.90;999.90;;;21.00;99.90;;;;;;5020395;28;20430;-83
2021/06/07 10:21:11;;;;;;;1999.90;999.90;;;21.00;99.90;;;;;;5018820;28;20409;-84
2021/06/07 10:23:37;;;;;;;1999.90;999.90;;;21.20;99.90;;;;;;5037262;28;20411;-83
2021/06/07 10:26:05;;;;;;;1999.90;999.90;;;21.20;99.90;;;;;;5037266;28;20403;-83
2021/06/07 10:28:34;;;;;;;1999.90;999.90;;;21.40;99.90;;;;;;5037009;28;20425;-83
2021/06/07 10:31:17;;;;;;;1999.90;999.90;;;21.50;99.90;;;;;;5037919;28;20406;-84
2021/06/07 10:33:54;;;;;;;1999.90;999.90;;;21.60;99.90;;;;;;5019916;28;20404;-83
2021/06/07 10:36:23;;;;;;;1999.90;999.90;;;21.70;99.90;;;;;;5019815;28;20451;-83
2021/06/07 10:38:50;;;;;;;1999.90;999.90;;;21.80;99.90;;;;;;5036320;28;20455;-83
2021/06/07 10:41:24;;;;;;;1999.90;999.90;;;21.90;99.90;;;;;;5037675;28;20498;-83
2021/06/07 10:43:52;;;;;;;1999.90;999.90;;;21.90;99.90;;;;;;5038511;28;20379;-82
2021/06/07 10:46:27;;;;;;;1999.90;999.90;;;22.20;99.90;;;;;;5023855;28;20502;-82
2021/06/07 10:48:54;;;;;;;1999.90;999.90;;;22.30;99.90;;;;;;5041555;28;20435;-81
2021/06/07 10:51:31;;;;;;;1999.90;999.90;;;22.20;99.90;;;;;;5041238;28;20978;-81
2021/06/07 10:54:29;;;;;;;1999.90;999.90;;;21.90;99.90;;;;;;5023663;28;20462;-81
2021/06/07 10:56:55;;;;;;;1999.90;999.90;;;21.90;99.90;;;;;;5023431;28;20467;-81
2021/06/07 10:59:21;;;;;;;1999.90;999.90;;;22.00;99.90;;;;;;5041019;28;20439;-81
2021/06/07 11:01:53;;;;;;;1999.90;999.90;;;21.90;99.90;;;;;;5021969;28;20425;-81
2021/06/07 11:04:38;;;;;;;1999.90;999.90;;;21.80;99.90;;;;;;5023638;28;20169;-81
2021/06/07 11:07:12;;;;;;;1999.90;999.90;;;21.70;99.90;;;;;;5023036;28;20770;-81
2021/06/07 11:10:12;;;;;;;1999.90;999.90;;;21.70;99.90;;;;;;5041568;28;20427;-81
2021/06/07 11:12:38;;;;;;;1999.90;999.90;;;21.60;99.90;;;;;;5041431;28;20430;-80
2021/06/07 11:15:11;;;;;;;1999.90;999.90;;;21.40;99.90;;;;;;5023118;28;20541;-81
2021/06/07 11:17:37;;;;;;;1999.90;999.90;;;21.40;99.90;;;;;;5041119;28;20403;-81
2021/06/07 11:20:07;;;;;;;1999.90;999.90;;;21.60;99.90;;;;;;5023796;28;20424;-81
2021/06/07 11:23:19;;;;;;;1999.90;999.90;;;21.90;99.90;;;;;;5040677;28;20404;-81
2021/06/07 11:25:53;;;;;;;1999.90;999.90;;;22.10;99.90;;;;;;4961585;29;20426;-81
2021/06/07 11:28:41;;;;;;;1999.90;999.90;;;22.20;99.90;;;;;;4960361;29;20435;-80
2021/06/07 11:31:18;;;;;;;1999.90;999.90;;;22.20;99.90;;;;;;5001436;28;20482;-81
2021/06/07 11:34:04;;;;;;;1999.90;999.90;;;22.40;99.90;;;;;;5040268;28;20919;-81
2021/06/07 11:36:49;;;;;;;1999.90;999.90;;;22.40;99.90;;;;;;5040755;28;20432;-81
2021/06/07 11:39:23;;;;;;;1999.90;999.90;;;22.50;99.90;;;;;;5022475;28;20447;-81
2021/06/07 11:41:59;;;;;;;1999.90;999.90;;;22.60;99.90;;;;;;5041070;28;20450;-81
2021/06/07 11:44:43;;;;;;;1999.90;999.90;;;22.70;99.90;;;;;;5023388;28;20398;-82
2021/06/07 11:47:51;;;;;;;1999.90;999.90;;;22.50;99.90;;;;;;5040060;28;20395;-81
2021/06/07 11:50:26;;;;;;;1999.90;999.90;;;22.30;99.90;;;;;;4944086;29;20443;-82
2021/06/07 11:52:53;;;;;;;1999.90;999.90;;;22.10;99.90;;;;;;5031733;28;20396;-80
2021/06/07 11:55:36;;;;;;;1999.90;999.90;;;21.80;99.90;;;;;;5023237;28;20454;-81
2021/06/07 11:58:12;;;;;;;1999.90;999.90;;;21.70;99.90;;;;;;5040753;28;20400;-81
2021/06/07 12:00:41;;;;;;;1999.90;999.90;;;21.70;99.90;;;;;;5022980;28;20410;-81
2021/06/07 12:03:08;;;;;;;1999.90;999.90;;;21.50;99.90;;;;;;5022046;28;20413;-80
2021/06/07 12:05:34;;;;;;;1999.90;999.90;;;21.40;99.90;;;;;;5040091;28;20933;-81
2021/06/07 12:14:15;;;;;;;1999.90;999.90;;;21.40;99.90;;;;;;4179671;22;20477;-87
2021/06/07 12:20:49;;;;;;;1999.90;999.90;;;21.30;99.90;;;;;;4908739;29;20427;-87
2021/06/07 12:31:09;;;;;;;1999.90;999.90;;;21.10;99.90;;;;;;4955043;28;20471;-86
2021/06/07 12:33:59;;;;;;;1999.90;999.90;;;21.10;99.90;;;;;;4952471;29;20801;-88
2021/06/07 12:37:16;;;;;;;;;;;;;;;;;;;;;
2021/06/07 12:40:14;;;;;;;1999.90;999.90;;;21.30;99.90;;;;;;4952535;29;20446;-88
2021/06/07 12:43:00;;;;;;;1999.90;999.90;;;21.30;99.90;;;;;;5025185;28;20420;-87
2021/06/07 12:45:57;;;;;;;1999.90;999.90;;;21.40;99.90;;;;;;5053413;28;20398;-87
2021/06/07 12:48:44;;;;;;;1999.90;999.90;;;21.60;99.90;;;;;;5053354;28;20517;-87
2021/06/07 12:52:40;;;;;;;;;;;;;;;;;;;;;
2021/06/07 12:55:32;;;;;;;1999.90;999.90;;;21.60;99.90;;;;;;4934240;29;20462;-88
2021/06/07 12:58:45;;;;;;;1999.90;999.90;;;21.60;99.90;;;;;;4976013;28;20411;-87
2021/06/07 13:02:08;;;;;;;1999.90;999.90;;;21.80;99.90;;;;;;4962595;28;20508;-87
2021/06/07 13:04:45;;;;;;;1999.90;999.90;;;21.90;99.90;;;;;;5049992;28;20778;-87
2021/06/07 13:07:23;;;;;;;1999.90;999.90;;;21.80;99.90;;;;;;5052514;28;20411;-87
2021/06/07 13:10:00;;;;;;;1999.90;999.90;;;21.80;99.90;;;;;;5053695;28;20779;-87
2021/06/07 13:12:37;;;;;;;1999.90;999.90;;;21.90;99.90;;;;;;5052331;28;20425;-88
2021/06/07 13:15:52;;;;;;;1999.90;999.90;;;21.80;99.90;;;;;;5053129;28;20455;-87
2021/06/07 13:19:00;;;;;;;1999.90;999.90;;;21.80;99.90;;;;;;5053021;28;20435;-87
2021/06/07 13:22:24;;;;;;;1999.90;999.90;;;21.70;99.90;;;;;;4975667;28;20408;-87
2021/06/07 13:35:51;;;;;;;1999.90;999.90;;;21.40;99.90;;;;;;4934044;29;20399;-87
2021/06/07 13:38:44;;;;;;;1999.90;999.90;;;21.30;99.90;;;;;;4915087;29;20435;-86
2021/06/07 13:45:06;;;;;;;1999.90;999.90;;;21.50;99.90;;;;;;4952819;29;20406;-87
2021/06/07 13:48:03;;;;;;;1999.90;999.90;;;21.60;99.90;;;;;;4976555;28;20795;-87
2021/06/07 13:51:25;;;;;;;;;;;;;;;;;;;;;
2021/06/07 13:54:21;;;;;;;1999.90;999.90;;;21.60;99.90;;;;;;4992316;28;20401;-87
2021/06/07 13:57:23;;;;;;;1999.90;999.90;;;21.60;99.90;;;;;;4975544;28;20554;-87
2021/06/07 13:59:58;;;;;;;1999.90;999.90;;;21.70;99.90;;;;;;5047183;28;20453;-87
2021/06/07 14:09:36;;;;;;;1999.90;999.90;;;21.90;99.90;;;;;;4979093;28;20983;-87
2021/06/07 14:16:25;;;;;;;1999.90;999.90;;;22.10;99.90;;;;;;4991530;28;20463;-87
2021/06/07 14:19:02;;;;;;;1999.90;999.90;;;22.20;99.90;;;;;;4967567;28;20453;-87
2021/06/07 14:24:54;;;;;;;1999.90;999.90;;;22.40;99.90;;;;;;5025556;28;20411;-86
2021/06/07 14:31:07;;;;;;;1999.90;999.90;;;22.60;99.90;;;;;;4994718;28;20410;-90
2021/06/07 14:33:39;;;;;;;1999.90;999.90;;;22.50;99.90;;;;;;4995406;28;20424;-90
2021/06/07 14:36:59;;;;;;;;;;;;;;;;;;;;;
2021/06/07 14:40:07;;;;;;;1999.90;999.90;;;22.50;99.90;;;;;;5050176;22;20474;-90
2021/06/07 14:46:02;;;;;;;1999.90;999.90;;;22.60;99.90;;;;;;5055361;28;20403;-90
2021/06/07 14:48:31;;;;;;;1999.90;999.90;;;22.70;99.90;;;;;;5072424;28;20433;-90
2021/06/07 14:54:25;;;;;;;;;;;;;;;;;;;;;
2021/06/07 14:57:36;;;;;;;1999.90;999.90;;;23.10;96.10;;;;;;5072436;28;20841;-90
2021/06/07 15:15:30;;;;;;;1999.90;999.90;;;23.40;92.90;;;;;;3102420;22;20552;-93
2021/06/07 16:34:16;;;;;;;1999.90;999.90;;;22.60;97.20;;;;;;5013282;28;20502;-92
2021/06/07 16:36:45;;;;;;;1999.90;999.90;;;22.50;98.10;;;;;;5073109;28;20445;-93
2021/06/07 16:39:17;;;;;;;1999.90;999.90;;;22.40;99.90;;;;;;5073455;28;20438;-92
2021/06/07 16:42:55;;;;;;;;;;;;;;;;;;;;;
2021/06/07 16:45:26;;;;;;;1999.90;999.90;;;22.20;99.90;;;;;;5061995;28;20395;-92
2021/06/07 16:48:10;;;;;;;;;;;;;;;;;;;;;
2021/06/07 16:50:44;;;;;;;1999.90;999.90;;;22.00;99.90;;;;;;5074814;28;20386;-92
2021/06/07 16:53:55;;;;;;;;;;;;;;;;;;;;;
2021/06/07 16:56:57;;;;;;;1999.90;999.90;;;22.00;99.90;;;;;;5074013;28;20434;-92
2021/06/07 17:00:05;;;;;;;1999.90;999.90;;;22.00;99.90;;;;;;5073142;28;20448;-93
2021/06/07 17:02:52;;;;;;;;;;;;;;;;;;;;;
2021/06/07 17:05:25;;;;;;;1999.90;999.90;;;21.80;99.90;;;;;;5073999;28;20422;-92
2021/06/07 17:11:01;;;;;;;1999.90;999.90;;;21.70;99.90;;;;;;1274334;26;20459;-92
2021/06/07 17:17:05;;;;;;;1999.90;999.90;;;21.60;99.90;;;;;;5012570;28;20522;-93
2021/06/07 17:20:22;;;;;;;1999.90;999.90;;;21.50;99.90;;;;;;5033783;28;20521;-92
2021/06/07 17:23:31;;;;;;;1999.90;999.90;;;21.40;99.90;;;;;;4956277;28;20925;-92
2021/06/07 17:26:17;;;;;;;1999.90;999.90;;;21.40;99.90;;;;;;4957600;28;20407;-93
2021/06/07 17:29:27;;;;;;;1999.90;999.90;;;21.40;99.90;;;;;;5031842;28;20432;-92
2021/06/07 17:35:33;;;;;;;1999.90;999.90;;;21.40;99.90;;;;;;5025689;28;20415;-92
2021/06/07 17:38:39;;;;;;;1999.90;999.90;;;21.40;99.90;;;;;;5034498;28;20464;-92
2021/06/07 17:41:32;;;;;;;1999.90;999.90;;;21.40;99.90;;;;;;5004292;28;20500;-92
2021/06/07 17:44:05;;;;;;;1999.90;999.90;;;21.40;99.90;;;;;;5033048;28;20443;-92
2021/06/07 17:47:08;;;;;;;1999.90;999.90;;;21.30;99.90;;;;;;5032606;28;20412;-92
2021/06/07 17:53:00;;;;;;;1999.90;999.90;;;21.20;99.90;;;;;;5027697;28;20407;-92
2021/06/07 17:55:45;;;;;;;1999.90;999.90;;;21.20;99.90;;;;;;5003445;28;20456;-92
2021/06/07 17:58:50;;;;;;;1999.90;999.90;;;21.20;99.90;;;;;;5032098;28;20838;-92
2021/06/07 18:01:34;;;;;;;1999.90;999.90;;;21.30;99.90;;;;;;4956995;28;20924;-92
2021/06/07 18:07:22;;;;;;;1999.90;999.90;;;21.60;99.90;;;;;;4992028;28;20425;-92
2021/06/07 18:09:47;;;;;;;1999.90;999.90;;;22.00;99.90;;;;;;5082410;22;20550;-82
2021/06/07 18:12:13;;;;;;;1999.90;999.90;;;22.10;99.90;;;;;;5016859;28;20388;-82
2021/06/07 18:14:39;;;;;;;1999.90;999.90;;;22.20;99.90;;;;;;5015857;28;20175;-81
2021/06/07 18:17:05;;;;;;;1999.90;999.90;;;22.10;99.90;;;;;;5015523;28;20568;-82
2021/06/07 18:19:30;;;;;;;1999.90;999.90;;;22.00;99.90;;;;;;5016354;28;20197;-82
2021/06/07 18:21:58;;;;;;;1999.90;999.90;;;22.00;99.90;;;;;;5016033;28;20400;-82
2021/06/07 18:24:26;;;;;;;1999.90;999.90;;;21.70;99.90;;;;;;5016548;28;20170;-81
2021/06/07 18:26:52;;;;;;;1999.90;999.90;;;21.70;99.90;;;;;;5015939;28;20444;-82
2021/06/07 18:29:18;;;;;;;1999.90;999.90;;;21.70;99.90;;;;;;5015323;28;20447;-82
2021/06/07 18:31:43;;;;;;;1999.90;999.90;;;21.70;99.90;;;;;;5016316;28;20185;-82
2021/06/07 18:34:09;;;;;;;1999.90;999.90;;;21.60;99.90;;;;;;5016436;28;20225;-82